Terminal Aerodrome Forecast
Issued by NWS Sioux Falls, SD

Home | Current Version | Previous Version | Text Only | Print | Product List | Glossary On
Versions: 1 2 3 4 5 6 7 8 9 10 11 12 13 14 15 16 17 18 19 20 21 22 23 24 25 26 27 28 29 30
000
FTUS43 KFSD 230700 AAA
TAFSUX
TAF AMD
KSUX 230727Z 2307/2406 09008KT 6SM -TSRA SCT015 OVC045CB
      TEMPO 2307/2309 VRB15G25KT 3SM TSRA BR BKN015 OVC030CB
     FM231100 10010KT 5SM BR BKN008
     FM231500 13012G17KT P6SM SCT015
     FM231800 16013G19KT P6SM FEW030
     FM240030 15009KT P6SM SCT150=

USA.gov is the U.S. government's official web portal to all federal, state and local government web resources and services.